sensor_id;sensor_type;location;lat;lon;timestamp;P1;durP1;ratioP1;P2;durP2;ratioP2
50064;SDS011;35951;47.848;-122.338;2022-09-12T00:01:21;20.45;;;11.10;;
50064;SDS011;35951;47.848;-122.338;2022-09-12T00:03:50;14.78;;;11.30;;
50064;SDS011;35951;47.848;-122.338;2022-09-12T00:06:23;22.62;;;12.28;;
50064;SDS011;35951;47.848;-122.338;2022-09-12T00:08:54;15.28;;;10.20;;
50064;SDS011;35951;47.848;-122.338;2022-09-12T00:11:29;25.02;;;12.53;;
50064;SDS011;35951;47.848;-122.338;2022-09-12T00:13:57;18.67;;;10.72;;
50064;SDS011;35951;47.848;-122.338;2022-09-12T00:16:27;22.93;;;11.35;;
50064;SDS011;35951;47.848;-122.338;2022-09-12T00:18:56;17.40;;;11.48;;
50064;SDS011;35951;47.848;-122.338;2022-09-12T00:21:25;18.55;;;11.38;;
50064;SDS011;35951;47.848;-122.338;2022-09-12T00:23:53;15.30;;;10.13;;
50064;SDS011;35951;47.848;-122.338;2022-09-12T00:26:21;13.00;;;10.10;;
50064;SDS011;35951;47.848;-122.338;2022-09-12T00:28:50;16.85;;;10.50;;
50064;SDS011;35951;47.848;-122.338;2022-09-12T00:31:19;16.67;;;10.40;;
50064;SDS011;35951;47.848;-122.338;2022-09-12T00:33:50;19.75;;;10.72;;
50064;SDS011;35951;47.848;-122.338;2022-09-12T00:38:49;22.25;;;10.95;;
50064;SDS011;35951;47.848;-122.338;2022-09-12T00:41:20;17.00;;;9.70;;
50064;SDS011;35951;47.848;-122.338;2022-09-12T00:43:58;16.80;;;9.63;;
50064;SDS011;35951;47.848;-122.338;2022-09-12T00:46:32;24.92;;;10.48;;
50064;SDS011;35951;47.848;-122.338;2022-09-12T00:49:22;17.15;;;10.58;;
50064;SDS011;35951;47.848;-122.338;2022-09-12T00:52:07;22.00;;;10.55;;
50064;SDS011;35951;47.848;-122.338;2022-09-12T00:54:46;18.67;;;11.22;;
50064;SDS011;35951;47.848;-122.338;2022-09-12T00:57:17;25.40;;;12.53;;
50064;SDS011;35951;47.848;-122.338;2022-09-12T01:02:45;23.52;;;12.82;;
50064;SDS011;35951;47.848;-122.338;2022-09-12T01:07:48;19.90;;;11.48;;
50064;SDS011;35951;47.848;-122.338;2022-09-12T01:10:17;16.10;;;10.70;;
50064;SDS011;35951;47.848;-122.338;2022-09-12T01:12:46;15.83;;;11.60;;
50064;SDS011;35951;47.848;-122.338;2022-09-12T01:15:14;22.45;;;12.03;;
50064;SDS011;35951;47.848;-122.338;2022-09-12T01:35:36;22.32;;;10.72;;
50064;SDS011;35951;47.848;-122.338;2022-09-12T01:38:26;16.97;;;9.95;;
50064;SDS011;35951;47.848;-122.338;2022-09-12T01:40:58;17.48;;;11.28;;
50064;SDS011;35951;47.848;-122.338;2022-09-12T01:46:22;17.27;;;9.95;;
50064;SDS011;35951;47.848;-122.338;2022-09-12T01:55:03;17.15;;;9.30;;
50064;SDS011;35951;47.848;-122.338;2022-09-12T01:57:46;19.48;;;11.10;;
50064;SDS011;35951;47.848;-122.338;2022-09-12T02:00:19;22.27;;;10.68;;
50064;SDS011;35951;47.848;-122.338;2022-09-12T02:02:50;19.17;;;10.13;;
50064;SDS011;35951;47.848;-122.338;2022-09-12T02:05:41;17.20;;;10.10;;
50064;SDS011;35951;47.848;-122.338;2022-09-12T02:08:19;16.85;;;9.53;;
50064;SDS011;35951;47.848;-122.338;2022-09-12T02:10:54;18.07;;;8.28;;
50064;SDS011;35951;47.848;-122.338;2022-09-12T02:13:31;18.23;;;7.75;;
50064;SDS011;35951;47.848;-122.338;2022-09-12T02:16:15;16.82;;;6.20;;
50064;SDS011;35951;47.848;-122.338;2022-09-12T02:21:22;14.93;;;5.80;;
50064;SDS011;35951;47.848;-122.338;2022-09-12T02:23:56;14.55;;;6.33;;
50064;SDS011;35951;47.848;-122.338;2022-09-12T02:26:41;15.68;;;5.22;;
50064;SDS011;35951;47.848;-122.338;2022-09-12T02:29:11;13.38;;;5.37;;
50064;SDS011;35951;47.848;-122.338;2022-09-12T02:34:20;13.32;;;5.22;;
50064;SDS011;35951;47.848;-122.338;2022-09-12T02:40:31;10.95;;;5.08;;
50064;SDS011;35951;47.848;-122.338;2022-09-12T02:43:02;14.25;;;4.45;;
50064;SDS011;35951;47.848;-122.338;2022-09-12T02:45:32;10.90;;;4.45;;
50064;SDS011;35951;47.848;-122.338;2022-09-12T02:50:42;14.85;;;5.20;;
50064;SDS011;35951;47.848;-122.338;2022-09-12T02:53:10;21.87;;;5.17;;
50064;SDS011;35951;47.848;-122.338;2022-09-12T02:55:38;16.62;;;5.17;;
50064;SDS011;35951;47.848;-122.338;2022-09-12T02:58:08;12.88;;;5.33;;
50064;SDS011;35951;47.848;-122.338;2022-09-12T03:15:06;11.63;;;4.58;;
50064;SDS011;35951;47.848;-122.338;2022-09-12T03:18:06;13.68;;;5.65;;
50064;SDS011;35951;47.848;-122.338;2022-09-12T03:20:52;13.65;;;5.67;;
50064;SDS011;35951;47.848;-122.338;2022-09-12T03:29:02;19.12;;;6.05;;
50064;SDS011;35951;47.848;-122.338;2022-09-12T03:31:31;18.67;;;6.55;;
50064;SDS011;35951;47.848;-122.338;2022-09-12T03:33:59;20.10;;;6.60;;
50064;SDS011;35951;47.848;-122.338;2022-09-12T03:36:28;9.30;;;5.27;;
50064;SDS011;35951;47.848;-122.338;2022-09-12T03:38:56;16.35;;;5.85;;
50064;SDS011;35951;47.848;-122.338;2022-09-12T03:41:24;16.60;;;6.00;;
50064;SDS011;35951;47.848;-122.338;2022-09-12T03:43:52;17.12;;;5.25;;
50064;SDS011;35951;47.848;-122.338;2022-09-12T03:46:21;16.02;;;6.28;;
50064;SDS011;35951;47.848;-122.338;2022-09-12T03:48:49;13.60;;;5.83;;
50064;SDS011;35951;47.848;-122.338;2022-09-12T03:51:16;12.05;;;5.22;;
50064;SDS011;35951;47.848;-122.338;2022-09-12T03:53:44;17.05;;;5.83;;
50064;SDS011;35951;47.848;-122.338;2022-09-12T03:56:12;12.28;;;4.92;;
50064;SDS011;35951;47.848;-122.338;2022-09-12T03:58:39;17.67;;;6.00;;
50064;SDS011;35951;47.848;-122.338;2022-09-12T04:01:08;21.17;;;6.05;;
50064;SDS011;35951;47.848;-122.338;2022-09-12T04:03:38;8.78;;;4.12;;
50064;SDS011;35951;47.848;-122.338;2022-09-12T04:06:07;14.33;;;5.45;;
50064;SDS011;35951;47.848;-122.338;2022-09-12T04:08:37;12.37;;;5.30;;
50064;SDS011;35951;47.848;-122.338;2022-09-12T04:11:07;13.28;;;5.75;;
50064;SDS011;35951;47.848;-122.338;2022-09-12T04:13:37;12.20;;;4.70;;
50064;SDS011;35951;47.848;-122.338;2022-09-12T04:16:06;11.50;;;4.33;;
50064;SDS011;35951;47.848;-122.338;2022-09-12T04:21:03;17.23;;;4.20;;
50064;SDS011;35951;47.848;-122.338;2022-09-12T04:23:32;12.78;;;3.05;;
50064;SDS011;35951;47.848;-122.338;2022-09-12T04:26:00;10.40;;;3.40;;
50064;SDS011;35951;47.848;-122.338;2022-09-12T04:28:31;16.73;;;3.00;;
50064;SDS011;35951;47.848;-122.338;2022-09-12T04:31:01;12.18;;;2.75;;
50064;SDS011;35951;47.848;-122.338;2022-09-12T04:33:34;8.60;;;3.58;;
50064;SDS011;35951;47.848;-122.338;2022-09-12T04:36:03;14.23;;;3.05;;
50064;SDS011;35951;47.848;-122.338;2022-09-12T04:38:34;12.65;;;2.70;;
50064;SDS011;35951;47.848;-122.338;2022-09-12T04:41:13;14.05;;;3.83;;
50064;SDS011;35951;47.848;-122.338;2022-09-12T04:43:47;13.98;;;3.22;;
50064;SDS011;35951;47.848;-122.338;2022-09-12T04:46:22;12.18;;;3.05;;
50064;SDS011;35951;47.848;-122.338;2022-09-12T04:48:51;10.93;;;2.92;;
50064;SDS011;35951;47.848;-122.338;2022-09-12T04:51:20;16.27;;;3.37;;
50064;SDS011;35951;47.848;-122.338;2022-09-12T04:53:52;14.10;;;2.65;;
50064;SDS011;35951;47.848;-122.338;2022-09-12T04:56:32;11.25;;;2.72;;
50064;SDS011;35951;47.848;-122.338;2022-09-12T04:59:05;17.27;;;3.27;;
50064;SDS011;35951;47.848;-122.338;2022-09-12T05:01:34;15.90;;;3.00;;
50064;SDS011;35951;47.848;-122.338;2022-09-12T05:04:02;11.48;;;2.33;;
50064;SDS011;35951;47.848;-122.338;2022-09-12T05:06:31;13.38;;;2.60;;
50064;SDS011;35951;47.848;-122.338;2022-09-12T05:09:01;8.05;;;2.80;;
50064;SDS011;35951;47.848;-122.338;2022-09-12T05:11:37;11.10;;;3.12;;
50064;SDS011;35951;47.848;-122.338;2022-09-12T05:14:08;9.73;;;2.47;;
50064;SDS011;35951;47.848;-122.338;2022-09-12T05:19:04;9.15;;;2.20;;
50064;SDS011;35951;47.848;-122.338;2022-09-12T05:21:31;11.63;;;2.45;;
50064;SDS011;35951;47.848;-122.338;2022-09-12T05:23:59;8.23;;;1.82;;
50064;SDS011;35951;47.848;-122.338;2022-09-12T05:26:27;8.70;;;1.92;;
50064;SDS011;35951;47.848;-122.338;2022-09-12T05:28:54;9.30;;;2.70;;
50064;SDS011;35951;47.848;-122.338;2022-09-12T05:31:23;12.70;;;2.85;;
50064;SDS011;35951;47.848;-122.338;2022-09-12T05:33:52;12.25;;;1.85;;
50064;SDS011;35951;47.848;-122.338;2022-09-12T05:36:25;9.03;;;1.92;;
50064;SDS011;35951;47.848;-122.338;2022-09-12T05:38:54;7.75;;;2.62;;
50064;SDS011;35951;47.848;-122.338;2022-09-12T05:41:25;12.65;;;2.25;;
50064;SDS011;35951;47.848;-122.338;2022-09-12T05:43:56;7.20;;;2.25;;
50064;SDS011;35951;47.848;-122.338;2022-09-12T05:46:26;11.75;;;1.87;;
50064;SDS011;35951;47.848;-122.338;2022-09-12T05:48:56;10.08;;;1.70;;
50064;SDS011;35951;47.848;-122.338;2022-09-12T05:51:27;11.43;;;2.12;;
50064;SDS011;35951;47.848;-122.338;2022-09-12T05:53:58;6.17;;;1.60;;
50064;SDS011;35951;47.848;-122.338;2022-09-12T05:56:28;7.62;;;1.20;;
50064;SDS011;35951;47.848;-122.338;2022-09-12T05:58:58;6.78;;;1.60;;
50064;SDS011;35951;47.848;-122.338;2022-09-12T06:01:28;7.03;;;2.10;;
50064;SDS011;35951;47.848;-122.338;2022-09-12T06:03:58;10.32;;;1.50;;
50064;SDS011;35951;47.848;-122.338;2022-09-12T06:06:28;9.88;;;1.95;;
50064;SDS011;35951;47.848;-122.338;2022-09-12T06:08:57;9.35;;;1.62;;
50064;SDS011;35951;47.848;-122.338;2022-09-12T06:11:27;5.72;;;1.47;;
50064;SDS011;35951;47.848;-122.338;2022-09-12T06:13:59;10.43;;;1.57;;
50064;SDS011;35951;47.848;-122.338;2022-09-12T06:16:28;12.35;;;2.15;;
50064;SDS011;35951;47.848;-122.338;2022-09-12T06:18:58;9.70;;;2.20;;
50064;SDS011;35951;47.848;-122.338;2022-09-12T06:21:31;10.18;;;2.52;;
50064;SDS011;35951;47.848;-122.338;2022-09-12T06:24:04;9.35;;;2.33;;
50064;SDS011;35951;47.848;-122.338;2022-09-12T06:26:32;6.60;;;1.57;;
50064;SDS011;35951;47.848;-122.338;2022-09-12T06:29:00;8.20;;;1.90;;
50064;SDS011;35951;47.848;-122.338;2022-09-12T06:31:28;6.57;;;2.00;;
50064;SDS011;35951;47.848;-122.338;2022-09-12T06:34:00;5.35;;;1.50;;
50064;SDS011;35951;47.848;-122.338;2022-09-12T06:36:31;10.08;;;1.90;;
50064;SDS011;35951;47.848;-122.338;2022-09-12T06:39:06;9.28;;;1.65;;
50064;SDS011;35951;47.848;-122.338;2022-09-12T06:41:47;8.58;;;1.77;;
50064;SDS011;35951;47.848;-122.338;2022-09-12T06:44:17;8.73;;;1.57;;
50064;SDS011;35951;47.848;-122.338;2022-09-12T06:46:47;7.62;;;1.90;;
50064;SDS011;35951;47.848;-122.338;2022-09-12T06:49:15;8.88;;;1.62;;
50064;SDS011;35951;47.848;-122.338;2022-09-12T06:51:42;14.13;;;1.75;;
50064;SDS011;35951;47.848;-122.338;2022-09-12T06:54:13;8.60;;;2.05;;
50064;SDS011;35951;47.848;-122.338;2022-09-12T06:56:42;10.50;;;1.72;;
50064;SDS011;35951;47.848;-122.338;2022-09-12T06:59:10;6.43;;;1.50;;
50064;SDS011;35951;47.848;-122.338;2022-09-12T07:01:38;11.17;;;2.57;;
50064;SDS011;35951;47.848;-122.338;2022-09-12T07:04:07;8.78;;;1.60;;
50064;SDS011;35951;47.848;-122.338;2022-09-12T07:06:40;10.48;;;1.82;;
50064;SDS011;35951;47.848;-122.338;2022-09-12T07:09:08;17.27;;;2.67;;
50064;SDS011;35951;47.848;-122.338;2022-09-12T07:11:40;8.58;;;1.22;;
50064;SDS011;35951;47.848;-122.338;2022-09-12T07:14:09;9.98;;;1.82;;
50064;SDS011;35951;47.848;-122.338;2022-09-12T07:16:38;9.70;;;2.05;;
50064;SDS011;35951;47.848;-122.338;2022-09-12T07:19:06;13.68;;;1.82;;
50064;SDS011;35951;47.848;-122.338;2022-09-12T07:21:34;11.88;;;2.00;;
50064;SDS011;35951;47.848;-122.338;2022-09-12T07:24:04;7.00;;;2.05;;
50064;SDS011;35951;47.848;-122.338;2022-09-12T07:26:33;7.72;;;1.62;;
50064;SDS011;35951;47.848;-122.338;2022-09-12T07:29:00;5.85;;;1.50;;
50064;SDS011;35951;47.848;-122.338;2022-09-12T07:31:28;11.60;;;1.50;;
50064;SDS011;35951;47.848;-122.338;2022-09-12T07:33:56;10.53;;;2.07;;
50064;SDS011;35951;47.848;-122.338;2022-09-12T07:36:24;13.72;;;2.80;;
50064;SDS011;35951;47.848;-122.338;2022-09-12T07:38:55;12.85;;;2.17;;
50064;SDS011;35951;47.848;-122.338;2022-09-12T07:41:24;12.37;;;1.67;;
50064;SDS011;35951;47.848;-122.338;2022-09-12T07:43:55;9.93;;;1.65;;
50064;SDS011;35951;47.848;-122.338;2022-09-12T07:46:25;10.70;;;2.67;;
50064;SDS011;35951;47.848;-122.338;2022-09-12T07:48:56;12.33;;;2.27;;
50064;SDS011;35951;47.848;-122.338;2022-09-12T07:51:26;9.80;;;2.27;;
50064;SDS011;35951;47.848;-122.338;2022-09-12T07:53:56;12.60;;;2.80;;
50064;SDS011;35951;47.848;-122.338;2022-09-12T07:56:25;7.17;;;1.87;;
50064;SDS011;35951;47.848;-122.338;2022-09-12T07:58:54;7.55;;;1.55;;
50064;SDS011;35951;47.848;-122.338;2022-09-12T08:01:22;10.55;;;2.27;;
50064;SDS011;35951;47.848;-122.338;2022-09-12T08:03:54;5.83;;;2.02;;
50064;SDS011;35951;47.848;-122.338;2022-09-12T08:06:24;8.08;;;2.30;;
50064;SDS011;35951;47.848;-122.338;2022-09-12T08:08:55;12.60;;;2.22;;
50064;SDS011;35951;47.848;-122.338;2022-09-12T08:11:25;11.03;;;1.87;;
50064;SDS011;35951;47.848;-122.338;2022-09-12T08:13:54;11.18;;;3.37;;
50064;SDS011;35951;47.848;-122.338;2022-09-12T08:16:24;18.70;;;3.17;;
50064;SDS011;35951;47.848;-122.338;2022-09-12T08:18:54;11.43;;;2.47;;
50064;SDS011;35951;47.848;-122.338;2022-09-12T08:21:22;6.42;;;1.82;;
50064;SDS011;35951;47.848;-122.338;2022-09-12T08:23:52;11.15;;;2.58;;
50064;SDS011;35951;47.848;-122.338;2022-09-12T08:26:22;9.93;;;2.65;;
50064;SDS011;35951;47.848;-122.338;2022-09-12T08:28:50;11.10;;;2.08;;
50064;SDS011;35951;47.848;-122.338;2022-09-12T08:31:18;5.37;;;1.17;;
50064;SDS011;35951;47.848;-122.338;2022-09-12T08:33:47;9.25;;;2.95;;
50064;SDS011;35951;47.848;-122.338;2022-09-12T08:36:17;9.50;;;2.15;;
50064;SDS011;35951;47.848;-122.338;2022-09-12T08:38:50;6.67;;;1.80;;
50064;SDS011;35951;47.848;-122.338;2022-09-12T08:41:36;9.33;;;1.57;;
50064;SDS011;35951;47.848;-122.338;2022-09-12T08:47:33;7.50;;;1.92;;
50064;SDS011;35951;47.848;-122.338;2022-09-12T08:55:35;12.63;;;3.08;;
50064;SDS011;35951;47.848;-122.338;2022-09-12T08:58:12;8.88;;;2.15;;
50064;SDS011;35951;47.848;-122.338;2022-09-12T09:00:47;4.92;;;1.60;;
50064;SDS011;35951;47.848;-122.338;2022-09-12T09:06:51;12.10;;;2.83;;
50064;SDS011;35951;47.848;-122.338;2022-09-12T09:13:10;10.90;;;2.42;;
50064;SDS011;35951;47.848;-122.338;2022-09-12T09:18:30;9.90;;;2.02;;
50064;SDS011;35951;47.848;-122.338;2022-09-12T09:21:18;13.60;;;2.85;;
50064;SDS011;35951;47.848;-122.338;2022-09-12T09:23:49;3.85;;;1.62;;
50064;SDS011;35951;47.848;-122.338;2022-09-12T09:26:33;8.35;;;2.17;;
50064;SDS011;35951;47.848;-122.338;2022-09-12T09:29:16;9.80;;;1.95;;
50064;SDS011;35951;47.848;-122.338;2022-09-12T09:31:48;10.30;;;3.25;;
50064;SDS011;35951;47.848;-122.338;2022-09-12T09:34:23;8.78;;;2.30;;
50064;SDS011;35951;47.848;-122.338;2022-09-12T09:36:59;9.10;;;2.40;;
50064;SDS011;35951;47.848;-122.338;2022-09-12T09:45:45;14.33;;;3.50;;
50064;SDS011;35951;47.848;-122.338;2022-09-12T09:48:14;14.55;;;3.67;;
50064;SDS011;35951;47.848;-122.338;2022-09-12T09:50:50;15.32;;;2.72;;
50064;SDS011;35951;47.848;-122.338;2022-09-12T09:56:10;8.63;;;2.37;;
50064;SDS011;35951;47.848;-122.338;2022-09-12T09:58:56;11.43;;;3.07;;
50064;SDS011;35951;47.848;-122.338;2022-09-12T10:01:36;14.03;;;3.08;;
50064;SDS011;35951;47.848;-122.338;2022-09-12T10:04:16;15.23;;;2.58;;
50064;SDS011;35951;47.848;-122.338;2022-09-12T10:06:44;10.25;;;3.10;;
50064;SDS011;35951;47.848;-122.338;2022-09-12T10:09:23;12.93;;;3.55;;
50064;SDS011;35951;47.848;-122.338;2022-09-12T10:11:57;12.82;;;2.67;;
50064;SDS011;35951;47.848;-122.338;2022-09-12T10:14:38;7.92;;;2.67;;
50064;SDS011;35951;47.848;-122.338;2022-09-12T10:17:27;13.48;;;3.40;;
50064;SDS011;35951;47.848;-122.338;2022-09-12T10:23:03;11.65;;;3.12;;
50064;SDS011;35951;47.848;-122.338;2022-09-12T10:25:46;9.43;;;2.47;;
50064;SDS011;35951;47.848;-122.338;2022-09-12T10:28:31;14.33;;;2.98;;
50064;SDS011;35951;47.848;-122.338;2022-09-12T10:30:57;11.45;;;2.25;;
50064;SDS011;35951;47.848;-122.338;2022-09-12T10:33:27;9.30;;;2.20;;
50064;SDS011;35951;47.848;-122.338;2022-09-12T10:35:56;26.42;;;3.77;;
50064;SDS011;35951;47.848;-122.338;2022-09-12T10:43:37;8.13;;;2.52;;
50064;SDS011;35951;47.848;-122.338;2022-09-12T10:48:46;9.80;;;2.47;;
50064;SDS011;35951;47.848;-122.338;2022-09-12T10:53:54;7.62;;;2.67;;
50064;SDS011;35951;47.848;-122.338;2022-09-12T10:56:31;17.10;;;3.05;;
50064;SDS011;35951;47.848;-122.338;2022-09-12T11:05:02;12.15;;;2.62;;
50064;SDS011;35951;47.848;-122.338;2022-09-12T11:13:10;14.75;;;2.60;;
50064;SDS011;35951;47.848;-122.338;2022-09-12T11:19:01;14.28;;;2.72;;
50064;SDS011;35951;47.848;-122.338;2022-09-12T11:21:59;14.25;;;3.08;;
50064;SDS011;35951;47.848;-122.338;2022-09-12T11:24:51;6.62;;;2.25;;
50064;SDS011;35951;47.848;-122.338;2022-09-12T11:30:04;10.03;;;2.17;;
50064;SDS011;35951;47.848;-122.338;2022-09-12T11:35:32;12.73;;;2.87;;
50064;SDS011;35951;47.848;-122.338;2022-09-12T11:41:08;11.85;;;2.75;;
50064;SDS011;35951;47.848;-122.338;2022-09-12T11:46:43;6.37;;;1.92;;
50064;SDS011;35951;47.848;-122.338;2022-09-12T11:49:24;10.13;;;2.45;;
50064;SDS011;35951;47.848;-122.338;2022-09-12T11:52:00;14.03;;;2.67;;
50064;SDS011;35951;47.848;-122.338;2022-09-12T12:00:30;15.72;;;3.62;;
50064;SDS011;35951;47.848;-122.338;2022-09-12T12:03:17;10.45;;;2.77;;
50064;SDS011;35951;47.848;-122.338;2022-09-12T12:08:43;10.60;;;3.67;;
50064;SDS011;35951;47.848;-122.338;2022-09-12T12:11:14;10.78;;;2.70;;
50064;SDS011;35951;47.848;-122.338;2022-09-12T12:16:41;13.40;;;2.62;;
50064;SDS011;35951;47.848;-122.338;2022-09-12T12:22:04;10.90;;;3.10;;
50064;SDS011;35951;47.848;-122.338;2022-09-12T12:24:34;9.43;;;3.10;;
50064;SDS011;35951;47.848;-122.338;2022-09-12T12:27:24;12.47;;;3.40;;
50064;SDS011;35951;47.848;-122.338;2022-09-12T12:35:41;14.28;;;2.72;;
50064;SDS011;35951;47.848;-122.338;2022-09-12T12:38:35;15.68;;;3.20;;
50064;SDS011;35951;47.848;-122.338;2022-09-12T12:43:53;12.75;;;3.37;;
50064;SDS011;35951;47.848;-122.338;2022-09-12T12:46:19;11.88;;;3.05;;
50064;SDS011;35951;47.848;-122.338;2022-09-12T12:48:50;10.43;;;3.05;;
50064;SDS011;35951;47.848;-122.338;2022-09-12T12:57:25;9.05;;;2.92;;
50064;SDS011;35951;47.848;-122.338;2022-09-12T13:00:01;12.45;;;3.62;;
50064;SDS011;35951;47.848;-122.338;2022-09-12T13:02:36;17.80;;;4.25;;
50064;SDS011;35951;47.848;-122.338;2022-09-12T13:05:19;12.10;;;3.42;;
50064;SDS011;35951;47.848;-122.338;2022-09-12T13:07:45;11.70;;;3.27;;
50064;SDS011;35951;47.848;-122.338;2022-09-12T13:10:23;11.05;;;3.25;;
50064;SDS011;35951;47.848;-122.338;2022-09-12T13:12:55;9.65;;;2.80;;
50064;SDS011;35951;47.848;-122.338;2022-09-12T13:18:15;8.55;;;2.55;;
50064;SDS011;35951;47.848;-122.338;2022-09-12T13:24:02;8.10;;;2.55;;
50064;SDS011;35951;47.848;-122.338;2022-09-12T13:26:34;17.70;;;3.75;;
50064;SDS011;35951;47.848;-122.338;2022-09-12T13:29:13;17.27;;;3.50;;
50064;SDS011;35951;47.848;-122.338;2022-09-12T13:31:47;18.40;;;3.55;;
50064;SDS011;35951;47.848;-122.338;2022-09-12T13:34:19;11.68;;;3.85;;
50064;SDS011;35951;47.848;-122.338;2022-09-12T13:36:56;12.70;;;3.65;;
50064;SDS011;35951;47.848;-122.338;2022-09-12T13:42:38;9.90;;;3.10;;
50064;SDS011;35951;47.848;-122.338;2022-09-12T13:45:13;12.50;;;3.67;;
50064;SDS011;35951;47.848;-122.338;2022-09-12T13:47:48;11.22;;;3.35;;
50064;SDS011;35951;47.848;-122.338;2022-09-12T13:50:28;11.33;;;3.40;;
50064;SDS011;35951;47.848;-122.338;2022-09-12T13:53:04;12.55;;;3.98;;
50064;SDS011;35951;47.848;-122.338;2022-09-12T13:55:35;17.37;;;4.25;;
50064;SDS011;35951;47.848;-122.338;2022-09-12T13:58:12;16.73;;;3.77;;
50064;SDS011;35951;47.848;-122.338;2022-09-12T14:00:43;13.62;;;3.33;;
50064;SDS011;35951;47.848;-122.338;2022-09-12T14:03:23;13.28;;;3.42;;
50064;SDS011;35951;47.848;-122.338;2022-09-12T14:06:15;16.77;;;4.37;;
50064;SDS011;35951;47.848;-122.338;2022-09-12T14:08:43;14.87;;;4.28;;
50064;SDS011;35951;47.848;-122.338;2022-09-12T14:11:25;10.58;;;3.67;;
50064;SDS011;35951;47.848;-122.338;2022-09-12T14:13:54;10.50;;;3.10;;
50064;SDS011;35951;47.848;-122.338;2022-09-12T14:16:23;10.78;;;3.00;;
50064;SDS011;35951;47.848;-122.338;2022-09-12T14:18:52;15.40;;;3.37;;
50064;SDS011;35951;47.848;-122.338;2022-09-12T14:24:00;12.80;;;3.52;;
50064;SDS011;35951;47.848;-122.338;2022-09-12T14:26:35;7.10;;;2.58;;
50064;SDS011;35951;47.848;-122.338;2022-09-12T14:29:05;12.90;;;3.50;;
50064;SDS011;35951;47.848;-122.338;2022-09-12T14:31:35;11.25;;;3.30;;
50064;SDS011;35951;47.848;-122.338;2022-09-12T14:34:08;14.20;;;3.52;;
50064;SDS011;35951;47.848;-122.338;2022-09-12T14:36:49;6.87;;;3.50;;
50064;SDS011;35951;47.848;-122.338;2022-09-12T14:39:23;13.95;;;3.47;;
50064;SDS011;35951;47.848;-122.338;2022-09-12T14:42:00;10.18;;;3.42;;
50064;SDS011;35951;47.848;-122.338;2022-09-12T14:44:39;9.93;;;3.15;;
50064;SDS011;35951;47.848;-122.338;2022-09-12T14:47:18;13.68;;;2.70;;
50064;SDS011;35951;47.848;-122.338;2022-09-12T14:49:46;16.50;;;4.05;;
50064;SDS011;35951;47.848;-122.338;2022-09-12T14:54:56;14.78;;;3.52;;
50064;SDS011;35951;47.848;-122.338;2022-09-12T14:57:30;12.80;;;2.92;;
50064;SDS011;35951;47.848;-122.338;2022-09-12T15:02:45;15.60;;;4.47;;
50064;SDS011;35951;47.848;-122.338;2022-09-12T15:05:16;10.05;;;3.92;;
50064;SDS011;35951;47.848;-122.338;2022-09-12T15:10:35;20.45;;;5.70;;
50064;SDS011;35951;47.848;-122.338;2022-09-12T15:13:09;14.63;;;3.52;;
50064;SDS011;35951;47.848;-122.338;2022-09-12T15:15:39;15.15;;;3.65;;
50064;SDS011;35951;47.848;-122.338;2022-09-12T15:18:10;11.18;;;3.10;;
50064;SDS011;35951;47.848;-122.338;2022-09-12T15:20:39;6.25;;;3.25;;
50064;SDS011;35951;47.848;-122.338;2022-09-12T15:23:17;11.88;;;3.90;;
50064;SDS011;35951;47.848;-122.338;2022-09-12T15:25:56;10.58;;;2.85;;
50064;SDS011;35951;47.848;-122.338;2022-09-12T15:28:24;16.80;;;4.13;;
50064;SDS011;35951;47.848;-122.338;2022-09-12T15:30:53;13.38;;;4.97;;
50064;SDS011;35951;47.848;-122.338;2022-09-12T15:33:22;12.63;;;4.90;;
50064;SDS011;35951;47.848;-122.338;2022-09-12T15:38:18;14.20;;;3.40;;
50064;SDS011;35951;47.848;-122.338;2022-09-12T15:40:51;23.65;;;4.75;;
50064;SDS011;35951;47.848;-122.338;2022-09-12T15:43:20;17.07;;;5.37;;
50064;SDS011;35951;47.848;-122.338;2022-09-12T15:45:50;14.75;;;4.58;;
50064;SDS011;35951;47.848;-122.338;2022-09-12T15:48:18;15.70;;;5.05;;
50064;SDS011;35951;47.848;-122.338;2022-09-12T15:50:46;12.03;;;3.87;;
50064;SDS011;35951;47.848;-122.338;2022-09-12T15:53:15;12.50;;;4.33;;
50064;SDS011;35951;47.848;-122.338;2022-09-12T15:55:43;16.67;;;4.62;;
50064;SDS011;35951;47.848;-122.338;2022-09-12T15:58:11;11.50;;;3.97;;
50064;SDS011;35951;47.848;-122.338;2022-09-12T16:00:40;19.30;;;4.78;;
50064;SDS011;35951;47.848;-122.338;2022-09-12T16:03:26;11.95;;;4.95;;
50064;SDS011;35951;47.848;-122.338;2022-09-12T16:05:57;18.85;;;4.60;;
50064;SDS011;35951;47.848;-122.338;2022-09-12T16:08:30;17.60;;;4.92;;
50064;SDS011;35951;47.848;-122.338;2022-09-12T16:11:01;13.88;;;4.03;;
50064;SDS011;35951;47.848;-122.338;2022-09-12T16:13:34;19.25;;;4.67;;
50064;SDS011;35951;47.848;-122.338;2022-09-12T16:16:02;12.05;;;4.35;;
50064;SDS011;35951;47.848;-122.338;2022-09-12T16:18:30;15.80;;;4.08;;
50064;SDS011;35951;47.848;-122.338;2022-09-12T16:20:58;13.13;;;4.40;;
50064;SDS011;35951;47.848;-122.338;2022-09-12T16:23:26;12.85;;;3.92;;
50064;SDS011;35951;47.848;-122.338;2022-09-12T16:25:57;11.10;;;3.83;;
50064;SDS011;35951;47.848;-122.338;2022-09-12T16:28:26;14.28;;;4.85;;
50064;SDS011;35951;47.848;-122.338;2022-09-12T16:30:59;13.75;;;4.53;;
50064;SDS011;35951;47.848;-122.338;2022-09-12T16:33:25;13.90;;;4.08;;
50064;SDS011;35951;47.848;-122.338;2022-09-12T16:35:59;19.70;;;5.78;;
50064;SDS011;35951;47.848;-122.338;2022-09-12T16:38:31;18.45;;;5.53;;
50064;SDS011;35951;47.848;-122.338;2022-09-12T16:41:05;16.57;;;5.30;;
50064;SDS011;35951;47.848;-122.338;2022-09-12T16:43:31;21.33;;;5.15;;
50064;SDS011;35951;47.848;-122.338;2022-09-12T16:46:04;10.68;;;3.30;;
50064;SDS011;35951;47.848;-122.338;2022-09-12T16:48:47;10.23;;;4.25;;
50064;SDS011;35951;47.848;-122.338;2022-09-12T16:51:18;18.73;;;4.58;;
50064;SDS011;35951;47.848;-122.338;2022-09-12T16:53:49;21.25;;;5.55;;
50064;SDS011;35951;47.848;-122.338;2022-09-12T16:56:16;14.13;;;4.50;;
50064;SDS011;35951;47.848;-122.338;2022-09-12T16:58:44;14.90;;;4.62;;
50064;SDS011;35951;47.848;-122.338;2022-09-12T17:01:13;15.10;;;4.87;;
50064;SDS011;35951;47.848;-122.338;2022-09-12T17:03:43;14.23;;;5.22;;
50064;SDS011;35951;47.848;-122.338;2022-09-12T17:06:12;23.57;;;5.17;;
50064;SDS011;35951;47.848;-122.338;2022-09-12T17:08:44;14.00;;;4.15;;
50064;SDS011;35951;47.848;-122.338;2022-09-12T17:11:15;15.95;;;5.15;;
50064;SDS011;35951;47.848;-122.338;2022-09-12T17:13:48;19.40;;;5.35;;
50064;SDS011;35951;47.848;-122.338;2022-09-12T17:16:20;15.28;;;4.42;;
50064;SDS011;35951;47.848;-122.338;2022-09-12T17:18:49;17.40;;;4.83;;
50064;SDS011;35951;47.848;-122.338;2022-09-12T17:21:18;21.40;;;5.47;;
50064;SDS011;35951;47.848;-122.338;2022-09-12T17:26:14;15.23;;;3.90;;
50064;SDS011;35951;47.848;-122.338;2022-09-12T17:28:42;12.63;;;4.65;;
50064;SDS011;35951;47.848;-122.338;2022-09-12T17:31:10;21.10;;;5.75;;
50064;SDS011;35951;47.848;-122.338;2022-09-12T17:33:39;15.83;;;5.15;;
50064;SDS011;35951;47.848;-122.338;2022-09-12T17:36:12;16.25;;;5.22;;
50064;SDS011;35951;47.848;-122.338;2022-09-12T17:38:39;15.32;;;5.53;;
50064;SDS011;35951;47.848;-122.338;2022-09-12T17:41:12;17.62;;;5.08;;